createdAt,value
2024-05-09T00:09:10.557Z,11.60
2024-05-09T00:19:12.864Z,11.50
2024-05-09T00:29:15.218Z,11.40
2024-05-09T00:39:17.374Z,11.20
2024-05-09T00:49:19.729Z,11.10
2024-05-09T00:59:23.960Z,10.90
2024-05-09T01:09:26.185Z,10.70
2024-05-09T01:19:30.446Z,10.60
2024-05-09T01:29:32.685Z,10.50
2024-05-09T01:39:34.983Z,10.40
2024-05-09T01:49:37.612Z,10.20
2024-05-09T01:59:39.817Z,10.10
2024-05-09T02:09:42.039Z,10.00
2024-05-09T02:19:44.233Z,9.90
2024-05-09T02:29:46.387Z,9.80
2024-05-09T02:39:48.526Z,9.70
2024-05-09T02:49:50.634Z,9.60
2024-05-09T02:59:52.754Z,9.50
2024-05-09T03:09:54.833Z,9.40
2024-05-09T03:19:57.177Z,9.40
2024-05-09T03:29:59.281Z,9.30
2024-05-09T03:40:02.909Z,9.20
2024-05-09T03:50:11.969Z,9.10
2024-05-09T04:00:22.614Z,9.10
2024-05-09T04:10:34.385Z,9.00
2024-05-09T04:20:40.002Z,9.00
2024-05-09T04:30:43.527Z,8.90
2024-05-09T04:40:45.880Z,9.00
2024-05-09T04:50:48.105Z,8.90
2024-05-09T05:00:50.295Z,8.90
2024-05-09T05:10:52.534Z,9.00
2024-05-09T05:20:56.009Z,9.20
2024-05-09T05:30:58.291Z,9.30
2024-05-09T05:41:00.480Z,9.60
2024-05-09T05:51:04.530Z,9.80
2024-05-09T06:01:07.004Z,10.10
2024-05-09T06:11:09.267Z,10.40
2024-05-09T06:21:11.462Z,10.80
2024-05-09T06:31:14.557Z,11.20
2024-05-09T06:41:16.797Z,11.60
2024-05-09T06:51:19.061Z,12.10
2024-05-09T07:01:21.357Z,12.50
2024-05-09T07:11:23.501Z,13.10
2024-05-09T07:21:25.712Z,13.60
2024-05-09T07:31:30.454Z,14.10
2024-05-09T07:41:32.652Z,14.60
2024-05-09T07:53:14.069Z,15.00
2024-05-09T08:01:56.963Z,15.40
2024-05-09T08:11:59.322Z,15.80
2024-05-09T08:22:06.873Z,16.20
2024-05-09T08:32:12.475Z,16.70
2024-05-09T08:42:18.341Z,17.10
2024-05-09T08:52:20.451Z,17.40
2024-05-09T09:02:23.452Z,17.70
2024-05-09T09:12:25.628Z,17.70
2024-05-09T09:22:27.783Z,17.60
2024-05-09T09:32:30.031Z,17.70
2024-05-09T09:42:35.374Z,18.00
2024-05-09T09:52:37.945Z,18.20
2024-05-09T10:02:40.578Z,18.50
2024-05-09T10:13:05.185Z,18.70
2024-05-09T10:23:29.621Z,18.80
2024-05-09T10:33:52.762Z,18.90
2024-05-09T10:43:55.406Z,19.00
2024-05-09T10:53:59.095Z,19.20
2024-05-09T11:04:03.864Z,19.50
2024-05-09T11:14:12.985Z,19.90
2024-05-09T11:24:15.113Z,20.10
2024-05-09T11:34:17.309Z,20.40
2024-05-09T11:44:19.395Z,20.50
2024-05-09T11:54:21.499Z,20.80
2024-05-09T12:04:23.746Z,21.10
2024-05-09T12:14:26.058Z,21.30
2024-05-09T12:24:29.492Z,21.40
2024-05-09T12:34:31.696Z,21.50
2024-05-09T12:44:33.909Z,21.60
2024-05-09T12:54:36.062Z,21.90
2024-05-09T13:04:38.391Z,22.20
2024-05-09T13:14:40.556Z,22.60
2024-05-09T13:24:42.732Z,22.90
2024-05-09T13:34:44.844Z,23.40
2024-05-09T13:44:46.983Z,23.50
2024-05-09T13:54:49.229Z,23.30
2024-05-09T14:04:51.523Z,23.10
2024-05-09T14:14:53.809Z,23.30
2024-05-09T14:24:55.996Z,23.80
2024-05-09T14:34:58.107Z,23.50
2024-05-09T14:45:02.049Z,23.30
2024-05-09T14:55:05.986Z,23.20
2024-05-09T15:05:11.057Z,23.60
2024-05-09T15:15:13.299Z,23.90
2024-05-09T15:25:15.996Z,24.20
2024-05-09T15:35:18.178Z,24.50
2024-05-09T15:45:20.254Z,24.80
2024-05-09T15:55:22.400Z,24.90
2024-05-09T16:05:24.717Z,25.10
2024-05-09T16:15:26.937Z,25.40
2024-05-09T16:25:28.970Z,25.80
2024-05-09T16:35:31.073Z,25.80
2024-05-09T16:45:33.452Z,25.70
2024-05-09T16:55:36.266Z,25.90
2024-05-09T17:05:39.401Z,25.80
2024-05-09T17:15:41.802Z,25.70
2024-05-09T17:25:43.863Z,25.70
2024-05-09T17:35:50.158Z,25.80
2024-05-09T17:45:52.372Z,25.80
2024-05-09T17:55:56.344Z,25.70
2024-05-09T18:05:59.039Z,25.60
2024-05-09T18:16:01.437Z,25.40
2024-05-09T18:26:05.640Z,25.30
2024-05-09T18:36:07.960Z,25.00
2024-05-09T18:46:10.192Z,24.50
2024-05-09T18:56:12.507Z,23.80
2024-05-09T19:06:14.690Z,23.10
2024-05-09T19:16:16.809Z,22.40
2024-05-09T19:26:18.971Z,21.70
2024-05-09T19:36:21.442Z,20.90
2024-05-09T19:46:23.782Z,20.10
2024-05-09T19:56:26.315Z,19.60
2024-05-09T20:06:30.243Z,19.20
2024-05-09T20:16:32.435Z,18.70
2024-05-09T20:26:34.715Z,18.20
2024-05-09T20:36:37.053Z,17.70
2024-05-09T20:46:39.411Z,17.30
2024-05-09T20:56:41.772Z,16.90
2024-05-09T21:06:44.146Z,16.50
2024-05-09T21:16:46.598Z,16.20
2024-05-09T21:26:49.117Z,15.90
2024-05-09T21:36:51.485Z,15.60
2024-05-09T21:46:53.912Z,15.30
2024-05-09T21:56:56.224Z,15.10
2024-05-09T22:06:58.362Z,14.90
2024-05-09T22:17:00.534Z,14.80
2024-05-09T22:27:02.718Z,14.60
2024-05-09T22:37:04.845Z,14.50
2024-05-09T22:47:06.965Z,14.40
2024-05-09T22:57:09.117Z,14.30
2024-05-09T23:07:11.361Z,14.10
2024-05-09T23:17:13.821Z,14.00
2024-05-09T23:27:15.993Z,13.90
2024-05-09T23:37:18.216Z,13.70
2024-05-09T23:47:20.355Z,13.60
2024-05-09T23:57:22.495Z,13.50
